sensor_id;sensor_type;location;lat;lon;timestamp;pressure;altitude;pressure_sealevel;temperature;humidity
77192;BME280;66172;48.526;8.078;2023-04-06T00:01:47;99815.50;;;1.31;68.14
77192;BME280;66172;48.526;8.078;2023-04-06T00:04:13;99814.16;;;1.23;67.94
77192;BME280;66172;48.526;8.078;2023-04-06T00:06:39;99808.28;;;1.26;67.39
77192;BME280;66172;48.526;8.078;2023-04-06T00:09:05;99815.22;;;1.27;67.56
77192;BME280;66172;48.526;8.078;2023-04-06T00:11:31;99814.16;;;1.18;67.95
77192;BME280;66172;48.526;8.078;2023-04-06T00:13:57;99804.78;;;1.16;68.34
77192;BME280;66172;48.526;8.078;2023-04-06T00:16:23;99807.72;;;1.34;67.72
77192;BME280;66172;48.526;8.078;2023-04-06T00:18:49;99805.28;;;1.63;66.49
77192;BME280;66172;48.526;8.078;2023-04-06T00:21:15;99813.84;;;1.75;65.93
77192;BME280;66172;48.526;8.078;2023-04-06T00:23:41;99805.22;;;1.83;65.79
77192;BME280;66172;48.526;8.078;2023-04-06T00:26:10;99799.28;;;2.01;64.93
77192;BME280;66172;48.526;8.078;2023-04-06T00:28:37;99799.84;;;1.98;64.98
77192;BME280;66172;48.526;8.078;2023-04-06T00:31:03;99802.84;;;1.82;65.60
77192;BME280;66172;48.526;8.078;2023-04-06T00:33:29;99807.97;;;1.63;65.89
77192;BME280;66172;48.526;8.078;2023-04-06T00:35:55;99790.31;;;1.22;68.01
77192;BME280;66172;48.526;8.078;2023-04-06T00:38:21;99798.91;;;1.09;68.65
77192;BME280;66172;48.526;8.078;2023-04-06T00:40:47;99797.28;;;1.08;68.66
77192;BME280;66172;48.526;8.078;2023-04-06T00:43:13;99792.69;;;0.78;69.49
77192;BME280;66172;48.526;8.078;2023-04-06T00:45:40;99782.00;;;0.63;70.52
77192;BME280;66172;48.526;8.078;2023-04-06T00:48:06;99786.03;;;0.70;70.09
77192;BME280;66172;48.526;8.078;2023-04-06T00:50:33;99780.41;;;0.82;69.83
77192;BME280;66172;48.526;8.078;2023-04-06T00:52:59;99782.00;;;0.78;69.81
77192;BME280;66172;48.526;8.078;2023-04-06T00:55:26;99773.94;;;0.68;69.67
77192;BME280;66172;48.526;8.078;2023-04-06T00:57:52;99779.56;;;0.56;70.55
77192;BME280;66172;48.526;8.078;2023-04-06T01:00:18;99783.53;;;0.43;71.01
77192;BME280;66172;48.526;8.078;2023-04-06T01:02:44;99778.69;;;0.30;72.07
77192;BME280;66172;48.526;8.078;2023-04-06T01:05:11;99769.88;;;0.35;71.29
77192;BME280;66172;48.526;8.078;2023-04-06T01:07:37;99782.97;;;0.31;72.14
77192;BME280;66172;48.526;8.078;2023-04-06T01:10:04;99770.09;;;0.18;73.15
77192;BME280;66172;48.526;8.078;2023-04-06T01:12:30;99770.38;;;0.22;72.64
77192;BME280;66172;48.526;8.078;2023-04-06T01:14:56;99766.13;;;0.31;71.69
77192;BME280;66172;48.526;8.078;2023-04-06T01:17:22;99763.97;;;0.23;72.93
77192;BME280;66172;48.526;8.078;2023-04-06T01:19:48;99771.16;;;0.22;72.55
77192;BME280;66172;48.526;8.078;2023-04-06T01:22:19;99761.00;;;0.19;72.60
77192;BME280;66172;48.526;8.078;2023-04-06T01:24:46;99761.50;;;0.11;72.91
77192;BME280;66172;48.526;8.078;2023-04-06T01:27:12;99770.09;;;0.18;73.16
77192;BME280;66172;48.526;8.078;2023-04-06T01:29:39;99754.56;;;0.15;73.50
77192;BME280;66172;48.526;8.078;2023-04-06T01:32:09;99758.91;;;0.31;72.54
77192;BME280;66172;48.526;8.078;2023-04-06T01:34:35;99753.81;;;0.30;72.20
77192;BME280;66172;48.526;8.078;2023-04-06T01:37:01;99751.69;;;0.27;72.39
77192;BME280;66172;48.526;8.078;2023-04-06T01:39:27;99753.00;;;0.24;72.40
77192;BME280;66172;48.526;8.078;2023-04-06T01:41:52;99751.72;;;0.42;71.28
77192;BME280;66172;48.526;8.078;2023-04-06T01:44:19;99742.81;;;0.21;72.90
77192;BME280;66172;48.526;8.078;2023-04-06T01:46:45;99746.03;;;0.18;72.84
77192;BME280;66172;48.526;8.078;2023-04-06T01:49:12;99746.56;;;0.15;73.00
77192;BME280;66172;48.526;8.078;2023-04-06T01:51:38;99748.41;;;0.10;73.38
77192;BME280;66172;48.526;8.078;2023-04-06T01:54:04;99753.53;;;0.26;72.26
77192;BME280;66172;48.526;8.078;2023-04-06T01:56:30;99738.00;;;0.18;72.42
77192;BME280;66172;48.526;8.078;2023-04-06T01:58:56;99740.69;;;0.13;72.80
77192;BME280;66172;48.526;8.078;2023-04-06T02:01:21;99742.50;;;0.03;73.29
77192;BME280;66172;48.526;8.078;2023-04-06T02:03:47;99739.28;;;0.00;73.58
77192;BME280;66172;48.526;8.078;2023-04-06T02:06:13;99742.22;;;-0.01;73.55
77192;BME280;66172;48.526;8.078;2023-04-06T02:08:39;99740.16;;;0.26;72.97
77192;BME280;66172;48.526;8.078;2023-04-06T02:11:05;99746.13;;;0.48;71.45
77192;BME280;66172;48.526;8.078;2023-04-06T02:13:31;99751.41;;;0.33;71.78
77192;BME280;66172;48.526;8.078;2023-04-06T02:15:57;99741.00;;;0.47;71.90
77192;BME280;66172;48.526;8.078;2023-04-06T02:18:23;99750.63;;;0.38;71.51
77192;BME280;66172;48.526;8.078;2023-04-06T02:20:49;99744.47;;;0.37;71.60
77192;BME280;66172;48.526;8.078;2023-04-06T02:23:14;99753.50;;;0.16;72.49
77192;BME280;66172;48.526;8.078;2023-04-06T02:25:40;99752.19;;;0.19;72.53
77192;BME280;66172;48.526;8.078;2023-04-06T02:28:07;99745.22;;;0.18;72.36
77192;BME280;66172;48.526;8.078;2023-04-06T02:30:33;99753.78;;;0.20;72.03
77192;BME280;66172;48.526;8.078;2023-04-06T02:33:02;99749.50;;;0.14;72.12
77192;BME280;66172;48.526;8.078;2023-04-06T02:35:28;99743.88;;;0.10;72.64
77192;BME280;66172;48.526;8.078;2023-04-06T02:37:54;99736.38;;;0.12;72.21
77192;BME280;66172;48.526;8.078;2023-04-06T02:40:20;99744.66;;;0.06;72.62
77192;BME280;66172;48.526;8.078;2023-04-06T02:42:46;99737.16;;;0.08;72.69
77192;BME280;66172;48.526;8.078;2023-04-06T02:45:12;99740.41;;;0.15;72.59
77192;BME280;66172;48.526;8.078;2023-04-06T02:47:38;99733.69;;;0.02;72.71
77192;BME280;66172;48.526;8.078;2023-04-06T02:50:04;99736.31;;;-0.03;73.07
77192;BME280;66172;48.526;8.078;2023-04-06T02:52:31;99733.91;;;-0.15;73.62
77192;BME280;66172;48.526;8.078;2023-04-06T02:54:57;99745.09;;;-0.18;73.55
77192;BME280;66172;48.526;8.078;2023-04-06T02:57:23;99737.69;;;-0.01;73.08
77192;BME280;66172;48.526;8.078;2023-04-06T02:59:49;99740.56;;;-0.12;73.24
77192;BME280;66172;48.526;8.078;2023-04-06T03:02:15;99731.28;;;0.06;72.74
77192;BME280;66172;48.526;8.078;2023-04-06T03:04:42;99733.22;;;0.30;71.33
77192;BME280;66172;48.526;8.078;2023-04-06T03:07:07;99735.63;;;0.32;71.13
77192;BME280;66172;48.526;8.078;2023-04-06T03:09:34;99738.03;;;0.23;71.62
77192;BME280;66172;48.526;8.078;2023-04-06T03:12:00;99735.06;;;0.10;71.96
77192;BME280;66172;48.526;8.078;2023-04-06T03:14:27;99732.44;;;0.30;71.46
77192;BME280;66172;48.526;8.078;2023-04-06T03:16:53;99731.63;;;0.29;71.16
77192;BME280;66172;48.526;8.078;2023-04-06T03:19:19;99728.69;;;0.31;71.17
77192;BME280;66172;48.526;8.078;2023-04-06T03:21:45;99725.66;;;0.07;71.42
77192;BME280;66172;48.526;8.078;2023-04-06T03:24:11;99729.72;;;0.20;71.66
77192;BME280;66172;48.526;8.078;2023-04-06T03:26:39;99729.72;;;0.25;71.44
77192;BME280;66172;48.526;8.078;2023-04-06T03:29:05;99721.88;;;-0.12;72.68
77192;BME280;66172;48.526;8.078;2023-04-06T03:31:31;99726.31;;;-0.33;73.80
77192;BME280;66172;48.526;8.078;2023-04-06T03:33:57;99732.16;;;-0.46;74.42
77192;BME280;66172;48.526;8.078;2023-04-06T03:36:23;99728.41;;;-0.45;74.38
77192;BME280;66172;48.526;8.078;2023-04-06T03:38:49;99735.03;;;-0.53;74.74
77192;BME280;66172;48.526;8.078;2023-04-06T03:41:15;99728.63;;;-0.57;74.95
77192;BME280;66172;48.526;8.078;2023-04-06T03:43:40;99733.16;;;-0.57;75.24
77192;BME280;66172;48.526;8.078;2023-04-06T03:46:06;99729.19;;;-0.49;74.75
77192;BME280;66172;48.526;8.078;2023-04-06T03:48:32;99732.00;;;-0.19;74.04
77192;BME280;66172;48.526;8.078;2023-04-06T03:50:58;99740.25;;;-0.21;73.16
77192;BME280;66172;48.526;8.078;2023-04-06T03:53:24;99741.91;;;-0.15;73.22
77192;BME280;66172;48.526;8.078;2023-04-06T03:55:50;99741.88;;;-0.20;73.41
77192;BME280;66172;48.526;8.078;2023-04-06T03:58:16;99745.25;;;-0.39;74.13
77192;BME280;66172;48.526;8.078;2023-04-06T04:00:42;99745.00;;;-0.38;74.45
77192;BME280;66172;48.526;8.078;2023-04-06T04:03:08;99754.78;;;-0.02;73.30
77192;BME280;66172;48.526;8.078;2023-04-06T04:05:34;99747.56;;;-0.01;72.83
77192;BME280;66172;48.526;8.078;2023-04-06T04:07:59;99763.53;;;-0.16;73.92
77192;BME280;66172;48.526;8.078;2023-04-06T04:10:25;99760.47;;;0.22;72.07
77192;BME280;66172;48.526;8.078;2023-04-06T04:12:51;99755.19;;;0.37;71.31
77192;BME280;66172;48.526;8.078;2023-04-06T04:15:17;99767.25;;;0.55;70.77
77192;BME280;66172;48.526;8.078;2023-04-06T04:17:43;99768.31;;;0.49;71.17
77192;BME280;66172;48.526;8.078;2023-04-06T04:20:12;99774.69;;;0.33;71.41
77192;BME280;66172;48.526;8.078;2023-04-06T04:22:38;99780.34;;;0.41;70.71
77192;BME280;66172;48.526;8.078;2023-04-06T04:25:05;99778.03;;;-0.02;72.21
77192;BME280;66172;48.526;8.078;2023-04-06T04:27:30;99773.13;;;-0.25;73.11
77192;BME280;66172;48.526;8.078;2023-04-06T04:29:56;99780.56;;;-0.27;73.24
77192;BME280;66172;48.526;8.078;2023-04-06T04:32:22;99788.06;;;-0.29;73.39
77192;BME280;66172;48.526;8.078;2023-04-06T04:34:48;99790.50;;;-0.23;73.42
77192;BME280;66172;48.526;8.078;2023-04-06T04:37:14;99788.19;;;-0.04;72.47
77192;BME280;66172;48.526;8.078;2023-04-06T04:39:40;99781.09;;;0.32;71.03
77192;BME280;66172;48.526;8.078;2023-04-06T04:42:06;99785.13;;;0.34;70.95
77192;BME280;66172;48.526;8.078;2023-04-06T04:44:32;99783.53;;;0.38;71.08
77192;BME280;66172;48.526;8.078;2023-04-06T04:46:57;99786.25;;;0.48;70.67
77192;BME280;66172;48.526;8.078;2023-04-06T04:49:23;99779.22;;;0.27;71.06
77192;BME280;66172;48.526;8.078;2023-04-06T04:51:49;99784.88;;;0.41;70.89
77192;BME280;66172;48.526;8.078;2023-04-06T04:54:18;99785.44;;;0.53;70.62
77192;BME280;66172;48.526;8.078;2023-04-06T04:56:44;99784.38;;;0.59;70.46
77192;BME280;66172;48.526;8.078;2023-04-06T04:59:11;99784.34;;;0.44;70.34
77192;BME280;66172;48.526;8.078;2023-04-06T05:01:37;99784.06;;;0.40;70.53
77192;BME280;66172;48.526;8.078;2023-04-06T05:04:02;99783.19;;;0.20;70.75
77192;BME280;66172;48.526;8.078;2023-04-06T05:06:28;99791.47;;;0.18;70.72
77192;BME280;66172;48.526;8.078;2023-04-06T05:08:55;99790.75;;;0.43;69.65
77192;BME280;66172;48.526;8.078;2023-04-06T05:11:21;99786.97;;;0.24;69.93
77192;BME280;66172;48.526;8.078;2023-04-06T05:13:47;99788.59;;;0.30;70.15
77192;BME280;66172;48.526;8.078;2023-04-06T05:16:13;99799.50;;;0.18;70.30
77192;BME280;66172;48.526;8.078;2023-04-06T05:18:39;99796.25;;;0.06;71.17
77192;BME280;66172;48.526;8.078;2023-04-06T05:21:04;99795.63;;;-0.11;71.85
77192;BME280;66172;48.526;8.078;2023-04-06T05:23:30;99805.22;;;-0.15;72.09
77192;BME280;66172;48.526;8.078;2023-04-06T05:25:56;99808.97;;;-0.16;72.44
77192;BME280;66172;48.526;8.078;2023-04-06T05:28:22;99805.19;;;-0.25;72.85
77192;BME280;66172;48.526;8.078;2023-04-06T05:30:48;99807.97;;;-0.47;74.06
77192;BME280;66172;48.526;8.078;2023-04-06T05:33:14;99806.63;;;-0.49;74.97
77192;BME280;66172;48.526;8.078;2023-04-06T05:35:40;99813.03;;;-0.45;74.22
77192;BME280;66172;48.526;8.078;2023-04-06T05:38:08;99813.91;;;-0.40;74.09
77192;BME280;66172;48.526;8.078;2023-04-06T05:40:36;99813.16;;;-0.30;73.95
77192;BME280;66172;48.526;8.078;2023-04-06T05:43:02;99812.91;;;-0.24;73.90
77192;BME280;66172;48.526;8.078;2023-04-06T05:45:28;99826.94;;;-0.02;73.57
77192;BME280;66172;48.526;8.078;2023-04-06T05:47:54;99811.28;;;0.17;72.16
77192;BME280;66172;48.526;8.078;2023-04-06T05:50:20;99812.34;;;0.21;72.03
77192;BME280;66172;48.526;8.078;2023-04-06T05:52:45;99807.06;;;0.46;71.25
77192;BME280;66172;48.526;8.078;2023-04-06T05:55:12;99806.56;;;0.44;71.65
77192;BME280;66172;48.526;8.078;2023-04-06T05:57:38;99805.28;;;0.82;70.47
77192;BME280;66172;48.526;8.078;2023-04-06T06:00:05;99817.38;;;0.95;69.69
77192;BME280;66172;48.526;8.078;2023-04-06T06:02:32;99813.06;;;0.99;69.76
77192;BME280;66172;48.526;8.078;2023-04-06T06:04:58;99807.72;;;0.84;69.83
77192;BME280;66172;48.526;8.078;2023-04-06T06:07:24;99816.03;;;0.97;69.39
77192;BME280;66172;48.526;8.078;2023-04-06T06:09:50;99816.28;;;1.16;68.80
77192;BME280;66172;48.526;8.078;2023-04-06T06:12:16;99807.72;;;1.04;69.34
77192;BME280;66172;48.526;8.078;2023-04-06T06:14:42;99815.75;;;1.65;67.24
77192;BME280;66172;48.526;8.078;2023-04-06T06:17:08;99809.72;;;2.13;66.06
77192;BME280;66172;48.526;8.078;2023-04-06T06:19:34;99810.75;;;4.25;59.32
77192;BME280;66172;48.526;8.078;2023-04-06T06:22:00;99816.22;;;5.78;54.37
77192;BME280;66172;48.526;8.078;2023-04-06T06:24:28;99809.81;;;5.74;54.23
77192;BME280;66172;48.526;8.078;2023-04-06T06:26:54;99812.28;;;6.03;52.67
77192;BME280;66172;48.526;8.078;2023-04-06T06:29:20;99811.03;;;5.36;54.00
77192;BME280;66172;48.526;8.078;2023-04-06T06:31:46;99804.16;;;5.11;54.19
77192;BME280;66172;48.526;8.078;2023-04-06T06:34:11;99804.81;;;5.35;54.62
77192;BME280;66172;48.526;8.078;2023-04-06T06:36:38;99806.16;;;6.52;52.59
77192;BME280;66172;48.526;8.078;2023-04-06T06:39:04;99810.94;;;8.50;47.01
77192;BME280;66172;48.526;8.078;2023-04-06T06:41:30;99809.88;;;9.37;44.35
77192;BME280;66172;48.526;8.078;2023-04-06T06:43:56;99806.38;;;9.19;43.52
77192;BME280;66172;48.526;8.078;2023-04-06T06:46:22;99805.09;;;9.42;44.21
77192;BME280;66172;48.526;8.078;2023-04-06T06:48:47;99813.50;;;8.46;43.96
77192;BME280;66172;48.526;8.078;2023-04-06T06:51:13;99812.91;;;9.27;44.35
77192;BME280;66172;48.526;8.078;2023-04-06T06:53:39;99821.38;;;9.42;41.23
77192;BME280;66172;48.526;8.078;2023-04-06T06:56:05;99813.16;;;9.68;41.15
77192;BME280;66172;48.526;8.078;2023-04-06T06:58:31;99814.34;;;10.72;39.51
77192;BME280;66172;48.526;8.078;2023-04-06T07:00:58;99812.38;;;12.97;35.42
77192;BME280;66172;48.526;8.078;2023-04-06T07:03:24;99819.41;;;13.38;35.41
77192;BME280;66172;48.526;8.078;2023-04-06T07:05:50;99808.94;;;13.00;34.67
77192;BME280;66172;48.526;8.078;2023-04-06T07:08:23;99813.72;;;14.65;32.98
77192;BME280;66172;48.526;8.078;2023-04-06T07:10:50;99806.03;;;14.08;33.29
77192;BME280;66172;48.526;8.078;2023-04-06T07:13:18;99805.34;;;14.58;32.61
77192;BME280;66172;48.526;8.078;2023-04-06T07:15:48;99806.94;;;11.88;37.00
77192;BME280;66172;48.526;8.078;2023-04-06T07:18:15;99812.84;;;12.75;35.95
77192;BME280;66172;48.526;8.078;2023-04-06T07:20:41;99797.22;;;12.24;37.44
77192;BME280;66172;48.526;8.078;2023-04-06T07:23:07;99791.59;;;12.57;36.14
77192;BME280;66172;48.526;8.078;2023-04-06T07:25:33;99807.06;;;13.72;34.68
77192;BME280;66172;48.526;8.078;2023-04-06T07:27:59;99798.44;;;17.30;29.08
77192;BME280;66172;48.526;8.078;2023-04-06T07:30:24;99798.34;;;16.93;28.05
77192;BME280;66172;48.526;8.078;2023-04-06T07:32:53;99800.19;;;14.57;31.32
77192;BME280;66172;48.526;8.078;2023-04-06T07:35:21;99803.38;;;16.87;28.91
77192;BME280;66172;48.526;8.078;2023-04-06T07:37:47;99792.25;;;16.05;29.80
77192;BME280;66172;48.526;8.078;2023-04-06T07:40:13;99797.50;;;18.80;25.45
77192;BME280;66172;48.526;8.078;2023-04-06T07:42:39;99805.03;;;19.77;23.61
77192;BME280;66172;48.526;8.078;2023-04-06T07:45:06;99801.38;;;18.72;25.13
77192;BME280;66172;48.526;8.078;2023-04-06T07:47:32;99804.84;;;19.27;24.52
77192;BME280;66172;48.526;8.078;2023-04-06T07:49:58;99804.31;;;18.42;25.05
77192;BME280;66172;48.526;8.078;2023-04-06T07:52:24;99794.25;;;16.80;27.31
77192;BME280;66172;48.526;8.078;2023-04-06T07:54:50;99802.75;;;17.61;26.45
77192;BME280;66172;48.526;8.078;2023-04-06T07:57:15;99789.47;;;18.54;25.73
77192;BME280;66172;48.526;8.078;2023-04-06T07:59:41;99800.25;;;18.80;24.99
77192;BME280;66172;48.526;8.078;2023-04-06T08:02:07;99793.97;;;19.77;24.30
77192;BME280;66172;48.526;8.078;2023-04-06T08:04:33;99799.94;;;20.21;23.50
77192;BME280;66172;48.526;8.078;2023-04-06T08:06:59;99800.31;;;20.80;22.52
77192;BME280;66172;48.526;8.078;2023-04-06T08:09:25;99802.13;;;21.36;21.60
77192;BME280;66172;48.526;8.078;2023-04-06T08:11:51;99801.31;;;21.46;21.25
77192;BME280;66172;48.526;8.078;2023-04-06T08:14:17;99795.47;;;21.96;20.96
77192;BME280;66172;48.526;8.078;2023-04-06T08:16:43;99797.63;;;21.67;21.78
77192;BME280;66172;48.526;8.078;2023-04-06T08:19:09;99794.97;;;21.49;23.15
77192;BME280;66172;48.526;8.078;2023-04-06T08:21:35;99791.94;;;21.08;23.94
77192;BME280;66172;48.526;8.078;2023-04-06T08:24:01;99790.78;;;21.02;23.19
77192;BME280;66172;48.526;8.078;2023-04-06T08:26:27;99794.22;;;21.38;24.41
77192;BME280;66172;48.526;8.078;2023-04-06T08:28:53;99803.63;;;21.55;23.62
77192;BME280;66172;48.526;8.078;2023-04-06T08:31:19;99791.41;;;21.49;23.62
77192;BME280;66172;48.526;8.078;2023-04-06T08:33:45;99789.81;;;21.51;24.19
77192;BME280;66172;48.526;8.078;2023-04-06T08:36:13;99790.66;;;21.37;24.02
77192;BME280;66172;48.526;8.078;2023-04-06T08:38:40;99793.59;;;21.78;23.23
77192;BME280;66172;48.526;8.078;2023-04-06T08:41:11;99801.09;;;21.81;22.83
77192;BME280;66172;48.526;8.078;2023-04-06T08:43:46;99795.56;;;21.78;22.72
77192;BME280;66172;48.526;8.078;2023-04-06T08:46:14;99794.63;;;22.09;21.96
77192;BME280;66172;48.526;8.078;2023-04-06T08:48:41;99790.84;;;22.78;21.70
77192;BME280;66172;48.526;8.078;2023-04-06T08:51:10;99796.94;;;23.33;21.36
77192;BME280;66172;48.526;8.078;2023-04-06T08:53:37;99793.59;;;23.15;21.11
77192;BME280;66172;48.526;8.078;2023-04-06T08:56:04;99788.50;;;23.44;20.96
77192;BME280;66172;48.526;8.078;2023-04-06T08:58:35;99795.03;;;23.27;21.18
77192;BME280;66172;48.526;8.078;2023-04-06T09:01:06;99784.84;;;23.51;20.64
77192;BME280;66172;48.526;8.078;2023-04-06T09:03:35;99787.81;;;24.20;20.87
77192;BME280;66172;48.526;8.078;2023-04-06T09:06:02;99783.81;;;24.21;20.87
77192;BME280;66172;48.526;8.078;2023-04-06T09:08:29;99785.16;;;24.83;20.77
77192;BME280;66172;48.526;8.078;2023-04-06T09:10:55;99791.56;;;24.33;19.79
77192;BME280;66172;48.526;8.078;2023-04-06T09:13:21;99785.63;;;24.31;20.70
77192;BME280;66172;48.526;8.078;2023-04-06T09:15:58;99789.88;;;24.16;21.20
77192;BME280;66172;48.526;8.078;2023-04-06T09:18:30;99781.53;;;24.40;20.78
77192;BME280;66172;48.526;8.078;2023-04-06T09:21:07;99783.16;;;24.10;20.96
77192;BME280;66172;48.526;8.078;2023-04-06T09:23:33;99781.97;;;24.38;20.60
77192;BME280;66172;48.526;8.078;2023-04-06T09:26:12;99786.25;;;24.19;20.50
77192;BME280;66172;48.526;8.078;2023-04-06T09:28:45;99786.25;;;24.19;20.69
77192;BME280;66172;48.526;8.078;2023-04-06T09:31:13;99779.28;;;23.51;21.17
77192;BME280;66172;48.526;8.078;2023-04-06T09:33:41;99790.31;;;23.58;21.13
77192;BME280;66172;48.526;8.078;2023-04-06T09:36:07;99786.81;;;24.34;19.55
77192;BME280;66172;48.526;8.078;2023-04-06T09:38:58;99785.34;;;24.26;19.01
77192;BME280;66172;48.526;8.078;2023-04-06T09:41:26;99778.69;;;24.66;18.93
77192;BME280;66172;48.526;8.078;2023-04-06T09:44:09;99789.97;;;24.79;19.31
77192;BME280;66172;48.526;8.078;2023-04-06T09:46:37;99774.34;;;25.44;17.95
77192;BME280;66172;48.526;8.078;2023-04-06T09:49:05;99778.22;;;24.48;18.67
77192;BME280;66172;48.526;8.078;2023-04-06T09:51:51;99778.81;;;25.22;19.17
77192;BME280;66172;48.526;8.078;2023-04-06T09:54:21;99788.69;;;26.14;17.50
77192;BME280;66172;48.526;8.078;2023-04-06T09:59:44;99776.47;;;26.57;17.01
77192;BME280;66172;48.526;8.078;2023-04-06T10:02:20;99774.94;;;27.13;16.63
77192;BME280;66172;48.526;8.078;2023-04-06T10:04:56;99771.63;;;27.60;16.82
77192;BME280;66172;48.526;8.078;2023-04-06T10:07:22;99772.66;;;26.96;17.03
77192;BME280;66172;48.526;8.078;2023-04-06T10:09:49;99767.81;;;26.67;16.08
77192;BME280;66172;48.526;8.078;2023-04-06T10:12:15;99771.16;;;27.74;16.54
77192;BME280;66172;48.526;8.078;2023-04-06T10:14:42;99767.38;;;27.68;15.68
77192;BME280;66172;48.526;8.078;2023-04-06T10:17:08;99766.41;;;27.33;15.84
77192;BME280;66172;48.526;8.078;2023-04-06T10:19:59;99757.72;;;27.44;15.80
77192;BME280;66172;48.526;8.078;2023-04-06T10:22:42;99761.88;;;26.37;15.68
77192;BME280;66172;48.526;8.078;2023-04-06T10:25:10;99758.66;;;27.12;14.89
77192;BME280;66172;48.526;8.078;2023-04-06T10:27:36;99749.25;;;27.06;15.35
77192;BME280;66172;48.526;8.078;2023-04-06T10:30:04;99754.09;;;26.89;13.22
77192;BME280;66172;48.526;8.078;2023-04-06T10:32:36;99764.81;;;25.97;15.20
77192;BME280;66172;48.526;8.078;2023-04-06T10:35:07;99755.59;;;26.16;14.22
77192;BME280;66172;48.526;8.078;2023-04-06T10:37:46;99758.47;;;26.45;14.31
77192;BME280;66172;48.526;8.078;2023-04-06T10:40:20;99761.31;;;25.77;15.22
77192;BME280;66172;48.526;8.078;2023-04-06T10:42:47;99761.75;;;26.08;15.90
77192;BME280;66172;48.526;8.078;2023-04-06T10:45:23;99759.84;;;26.98;13.38
77192;BME280;66172;48.526;8.078;2023-04-06T10:47:52;99752.66;;;27.26;12.13
77192;BME280;66172;48.526;8.078;2023-04-06T10:50:19;99754.03;;;26.76;11.01
77192;BME280;66172;48.526;8.078;2023-04-06T10:52:45;99759.75;;;26.57;13.15
77192;BME280;66172;48.526;8.078;2023-04-06T10:55:13;99755.72;;;27.03;12.83
77192;BME280;66172;48.526;8.078;2023-04-06T10:57:40;99751.91;;;26.97;13.47
77192;BME280;66172;48.526;8.078;2023-04-06T11:00:07;99757.09;;;26.82;12.19
77192;BME280;66172;48.526;8.078;2023-04-06T11:02:36;99751.22;;;26.15;13.61
77192;BME280;66172;48.526;8.078;2023-04-06T11:05:04;99750.09;;;26.45;11.22
77192;BME280;66172;48.526;8.078;2023-04-06T11:07:29;99757.56;;;25.67;12.43
77192;BME280;66172;48.526;8.078;2023-04-06T11:09:56;99745.91;;;24.97;13.54
77192;BME280;66172;48.526;8.078;2023-04-06T11:12:24;99740.78;;;24.96;14.80
77192;BME280;66172;48.526;8.078;2023-04-06T11:14:58;99739.97;;;24.95;15.33
77192;BME280;66172;48.526;8.078;2023-04-06T11:17:33;99736.50;;;24.48;17.08
77192;BME280;66172;48.526;8.078;2023-04-06T11:20:00;99744.00;;;24.28;17.00
77192;BME280;66172;48.526;8.078;2023-04-06T11:22:26;99737.44;;;25.60;16.13
77192;BME280;66172;48.526;8.078;2023-04-06T11:24:52;99719.16;;;25.91;14.34
77192;BME280;66172;48.526;8.078;2023-04-06T11:27:19;99734.66;;;25.60;15.37
77192;BME280;66172;48.526;8.078;2023-04-06T11:29:46;99730.66;;;25.77;15.64
77192;BME280;66172;48.526;8.078;2023-04-06T11:32:20;99718.38;;;25.39;14.98
77192;BME280;66172;48.526;8.078;2023-04-06T11:34:47;99719.00;;;25.82;15.48
77192;BME280;66172;48.526;8.078;2023-04-06T11:37:13;99723.88;;;25.42;15.49
77192;BME280;66172;48.526;8.078;2023-04-06T11:39:43;99725.66;;;25.52;14.94
77192;BME280;66172;48.526;8.078;2023-04-06T11:42:09;99713.09;;;25.96;14.68
77192;BME280;66172;48.526;8.078;2023-04-06T11:44:40;99712.69;;;24.67;15.25
77192;BME280;66172;48.526;8.078;2023-04-06T11:47:09;99718.81;;;26.21;14.05
77192;BME280;66172;48.526;8.078;2023-04-06T11:49:40;99710.13;;;25.35;13.51
77192;BME280;66172;48.526;8.078;2023-04-06T11:52:24;99707.94;;;25.78;14.31
77192;BME280;66172;48.526;8.078;2023-04-06T11:54:51;99693.22;;;25.78;14.17
77192;BME280;66172;48.526;8.078;2023-04-06T11:57:19;99699.31;;;25.73;15.37
77192;BME280;66172;48.526;8.078;2023-04-06T11:59:45;99696.13;;;24.60;16.01
77192;BME280;66172;48.526;8.078;2023-04-06T12:02:11;99687.94;;;24.10;15.90
77192;BME280;66172;48.526;8.078;2023-04-06T12:04:37;99692.66;;;23.63;16.16
77192;BME280;66172;48.526;8.078;2023-04-06T12:07:03;99693.63;;;24.46;15.38
77192;BME280;66172;48.526;8.078;2023-04-06T12:09:30;99692.94;;;24.42;15.32
77192;BME280;66172;48.526;8.078;2023-04-06T12:11:56;99698.75;;;24.90;15.39
77192;BME280;66172;48.526;8.078;2023-04-06T12:14:22;99691.06;;;24.12;16.65
77192;BME280;66172;48.526;8.078;2023-04-06T12:16:48;99693.06;;;23.61;16.78
77192;BME280;66172;48.526;8.078;2023-04-06T12:19:14;99693.91;;;22.64;18.17
77192;BME280;66172;48.526;8.078;2023-04-06T12:21:40;99699.03;;;22.72;18.15
77192;BME280;66172;48.526;8.078;2023-04-06T12:24:06;99692.25;;;21.36;18.49
77192;BME280;66172;48.526;8.078;2023-04-06T12:26:32;99683.59;;;21.31;19.33
77192;BME280;66172;48.526;8.078;2023-04-06T12:28:59;99686.06;;;21.04;19.28
77192;BME280;66172;48.526;8.078;2023-04-06T12:31:34;99686.59;;;21.51;18.50
77192;BME280;66172;48.526;8.078;2023-04-06T12:34:01;99675.38;;;21.17;19.36
77192;BME280;66172;48.526;8.078;2023-04-06T12:36:28;99672.63;;;21.13;18.34
77192;BME280;66172;48.526;8.078;2023-04-06T12:38:55;99668.78;;;20.89;20.03
77192;BME280;66172;48.526;8.078;2023-04-06T12:41:21;99672.13;;;20.00;21.80
77192;BME280;66172;48.526;8.078;2023-04-06T12:43:48;99681.22;;;19.75;22.20
77192;BME280;66172;48.526;8.078;2023-04-06T12:46:16;99684.75;;;20.18;21.51
77192;BME280;66172;48.526;8.078;2023-04-06T12:48:42;99676.06;;;20.30;21.44
77192;BME280;66172;48.526;8.078;2023-04-06T12:51:08;99676.81;;;20.45;21.82
77192;BME280;66172;48.526;8.078;2023-04-06T12:53:34;99673.28;;;20.23;20.85
77192;BME280;66172;48.526;8.078;2023-04-06T12:56:02;99668.19;;;20.29;20.55
77192;BME280;66172;48.526;8.078;2023-04-06T12:58:28;99675.66;;;20.42;20.91
77192;BME280;66172;48.526;8.078;2023-04-06T13:00:55;99666.16;;;20.51;21.05
77192;BME280;66172;48.526;8.078;2023-04-06T13:03:23;99670.09;;;20.53;21.37
77192;BME280;66172;48.526;8.078;2023-04-06T13:05:50;99671.59;;;20.79;19.47
77192;BME280;66172;48.526;8.078;2023-04-06T13:08:18;99670.16;;;20.28;19.47